Terminal Aerodrome Forecast
Issued by NWS

Home | Current Version | Previous Version | Text Only | Print | Product List | Glossary On
Versions: 1 2 3 4 5 6 7 8 9 10 11 12
000
FTUS42 TJSJ 161100
TAFJMZ
TAF
TJMZ 161122Z 1612/1712 09005KT P6SM FEW030
     FM161400 25007KT P6SM FEW030
     FM161700 26010KT P6SM VCTS SCT025CB BKN035
     FM162200 VRB03KT P6SM SCT040
      AMD NOT SKED 1623/1711=

USA.gov is the U.S. government's official web portal to all federal, state and local government web resources and services.